- বাংলা English

**** MARITIME PORTS OF CHITTAGONG, COX’S BAZAR, MONGLA AND PAYRA HAVE BEEN ADVISED TO HOIST  LOCAL CAUTIONARY SIGNAL NO.THREE (R) THREE****   Phone: +880 2913574

METAR

VGHS 201800Z 16005KT 4000 HZ FEW015 SCT100 28/25 Q1007 NO SIG=